KICL/ICL METAR and TAF weather

Enter ICAO airport designator
Station Type Date Time Source
KICL METAR 2021/10/20 06:15 UTC NOAA

KICL 200615Z AUTO 18005KT 10SM FEW039 17/12 A2993 RMK AO2


Station Type Date Time Source
KICL Decoded METAR 2021/10/20 06:15 UTC NOAA

Clarinda, IA, United States (KICL) 40-43N 095-02W
Oct 20, 2021 - 02:15 AM EDT / 2021.10.20 0615 UTC
Wind: from the S (180 degrees) at 6 MPH (5 KT):0
Visibility: 10 mile(s):0
Sky conditions: mostly clear
Temperature: 62 F (17 C)
Dew Point: 53 F (12 C)
Relative Humidity: 72%
Pressure (altimeter): 29.93 in. Hg (1013 hPa)
ob: KICL 200615Z AUTO 18005KT 10SM FEW039 17/12 A2993 RMK AO2
cycle: 6

Station Type Date Time Source
KICL TAF UTC NOAA

Error!

Example: see airport list